Hovedside
METAR-TAF:

METAR-TAF

Lufthavner :

Florø lufthavn

Florø, Norge

breddegrad: 61-35N, lengdegrad: 005-02E, høyde over havet: 0 m

Gjeldene værobservasjon

Denne rapporten ble laget for 19 minutter siden, klokken 17:20 UTC
Vind 8 kt fra Nord-nordvest
Temperatur 20°C
Luftfuktighet 53%
Trykk 1029 hPa
Sikt 10 km eller mer

METAR: ENFL 261720Z AUTO 33008KT 9999NDV NCD 20/10 Q1029

Tid: 19:39 (17:39 UTC)


TAF: fraværende

Værobservasjoner og værvarsel for over 4000 flyplasser (METAR- og TAF-rapporter).

Tilgjengelige stasjoner er representert av de røde og gule prikkene på kartet.

Hold musepekeren over prikken for å se navnet på stasjonen.

Klikk så for å se værobservasjoner og -varsler.

For å forandre kartet kan du klikke på den grønne knappen med svart kryss for å zoome inn, på den grønne knappen med strek for å zoome ut, eller på de grønne pilene for å se tilstøtende kart.


METAR-TAF: